Terminal Aerodrome Forecast
Issued by NWS Tampa Bay Area, FL

Home | Current Version | Previous Version | Text Only | Print | Product List | Glossary On
Versions: 1 2 3 4 5 6 7 8 9 10 11 12 13 14 15 16 17 18 19 20 21 22 23 24 25 26
074
FTUS42 KTBW 010256 AAA
TAFTPA
TAF AMD
KTPA 010256Z 0103/0124 14010G18KT P6SM BKN050 BKN100
     FM010600 13008KT P6SM SCT025 BKN250
     FM011300 16011KT P6SM BKN035 BKN250
     FM011600 20012KT P6SM BKN050 BKN100=

USA.gov is the U.S. government's official web portal to all federal, state and local government web resources and services.